Time;durP1;ratioP1;P1;durP2;ratioP2;P2;SDS_P1;SDS_P2;PMS_P1;PMS_P2;Temp;Humidity;BMP_temperature;BMP_pressure;BME280_temperature;BME280_humidity;BME280_pressure;Samples;Min_cycle;Max_cycle;Signal;HPM_P1;HPM_P2
2023/09/05 00:00:14;;;;;;;115.43;110.45;;;;;;;25.66;47.02;101866.53;5038034;28;20037;-74
2023/09/05 00:02:40;;;;;;;120.07;114.82;;;;;;;25.65;46.73;101870.44;5040142;28;20037;-74
2023/09/05 00:05:07;;;;;;;118.05;112.75;;;;;;;25.65;46.89;101866.84;5044203;28;20033;-74
2023/09/05 00:07:35;;;;;;;124.60;119.18;;;;;;;25.64;46.86;101868.78;5042755;28;20424;-74
2023/09/05 00:10:03;;;;;;;120.22;114.97;;;;;;;25.63;46.74;101877.44;5052831;28;20033;-74
2023/09/05 00:12:29;;;;;;;119.43;114.18;;;;;;;25.63;46.72;101869.13;5048148;28;20045;-75
2023/09/05 00:14:55;;;;;;;121.45;115.95;;;;;;;25.61;46.91;101868.63;5053636;28;20040;-74
2023/09/05 00:17:20;;;;;;;119.13;113.85;;;;;;;25.60;46.82;101866.97;5044654;28;20366;-74
2023/09/05 00:19:46;;;;;;;117.63;112.55;;;;;;;25.59;46.85;101863.41;5046208;28;20040;-74
2023/09/05 00:22:12;;;;;;;118.78;113.63;;;;;;;25.58;46.98;101855.44;5030040;28;20037;-74
2023/09/05 00:24:38;;;;;;;120.05;114.65;;;;;;;25.57;46.50;101860.13;5051422;28;20124;-74
2023/09/05 00:27:09;;;;;;;121.65;116.30;;;;;;;25.56;46.99;101857.69;5046480;28;20462;-74
2023/09/05 00:29:35;;;;;;;116.22;111.03;;;;;;;25.53;46.71;101864.69;5037385;28;20032;-74
2023/09/05 00:32:03;;;;;;;119.70;114.25;;;;;;;25.52;46.71;101864.97;5046471;28;20066;-74
2023/09/05 00:34:33;;;;;;;119.57;114.38;;;;;;;25.51;46.85;101861.41;5037249;28;20037;-74
2023/09/05 00:37:03;;;;;;;117.93;112.75;;;;;;;25.50;46.42;101864.47;5051033;28;20138;-74
2023/09/05 00:39:30;;;;;;;116.25;111.18;;;;;;;25.48;46.71;101853.75;5051413;28;20033;-74
2023/09/05 00:41:56;;;;;;;113.90;108.78;;;;;;;25.45;47.00;101863.50;5045961;28;20060;-74
2023/09/05 00:44:26;;;;;;;113.68;108.70;;;;;;;25.42;46.88;101861.34;5035567;28;20036;-74
2023/09/05 00:46:55;;;;;;;115.88;110.78;;;;;;;25.40;46.83;101866.41;5043896;28;20049;-74
2023/09/05 00:49:27;;;;;;;125.38;119.63;;;;;;;25.40;46.66;101857.25;5040538;28;20034;-74
2023/09/05 00:51:56;;;;;;;119.22;113.85;;;;;;;25.36;46.79;101859.84;5050394;28;20024;-74
2023/09/05 00:54:22;;;;;;;116.40;111.30;;;;;;;25.35;46.70;101863.75;5044908;28;20086;-74
2023/09/05 00:56:48;;;;;;;115.68;110.65;;;;;;;25.33;46.76;101857.72;5047622;28;20037;-74
2023/09/05 00:59:14;;;;;;;116.95;111.88;;;;;;;25.31;46.77;101854.47;5059611;28;20060;-74
2023/09/05 01:01:40;;;;;;;121.55;116.20;;;;;;;25.29;46.67;101858.66;5063977;28;20067;-75
2023/09/05 01:04:05;;;;;;;117.43;112.22;;;;;;;25.27;46.61;101858.97;5045503;28;20049;-74
2023/09/05 01:06:56;;;;;;;116.88;111.68;;;;;;;25.22;46.81;101857.19;5041038;28;20108;-74
2023/09/05 01:09:45;;;;;;;117.57;112.45;;;;;;;25.22;46.93;101868.25;5039525;28;20029;-73
2023/09/05 01:12:11;;;;;;;111.95;106.85;;;;;;;25.20;46.66;101855.84;5037278;28;20116;-74
2023/09/05 01:14:36;;;;;;;113.35;108.25;;;;;;;25.17;46.83;101862.81;5049154;28;20040;-74
2023/09/05 01:17:05;;;;;;;120.53;114.82;;;;;;;25.16;47.08;101863.94;5041636;28;20421;-74
2023/09/05 01:19:34;;;;;;;;;;;;;;;25.09;46.63;101851.66;5050570;28;20477;-74
2023/09/05 01:22:24;;;;;;;109.60;104.63;;;;;;;25.10;46.82;101850.53;5037295;28;19912;-74
2023/09/05 01:24:50;;;;;;;113.88;108.88;;;;;;;25.08;46.85;101858.34;5040146;28;20393;-74
2023/09/05 01:27:19;;;;;;;111.65;106.68;;;;;;;25.05;46.89;101852.31;5042431;28;20516;-74
2023/09/05 01:29:45;;;;;;;111.70;106.65;;;;;;;25.04;46.74;101858.94;5043146;28;20103;-74
2023/09/05 01:32:11;;;;;;;112.93;107.97;;;;;;;25.03;46.78;101862.03;5048840;28;20090;-74
2023/09/05 01:34:37;;;;;;;116.88;111.70;;;;;;;25.00;46.62;101855.19;5063695;28;20040;-74
2023/09/05 01:37:02;;;;;;;115.80;110.78;;;;;;;24.99;46.76;101859.06;5041417;28;20029;-74
2023/09/05 01:39:28;;;;;;;111.72;106.82;;;;;;;24.98;46.95;101857.44;5056617;28;20082;-74
2023/09/05 01:41:53;;;;;;;111.45;106.43;;;;;;;24.96;47.10;101851.41;5048770;28;20048;-74
2023/09/05 01:44:19;;;;;;;111.40;106.55;;;;;;;24.95;47.01;101857.28;5041575;28;20040;-74
2023/09/05 01:46:45;;;;;;;113.97;108.88;;;;;;;24.92;46.74;101853.19;5049468;28;20168;-74
2023/09/05 01:49:10;;;;;;;116.05;110.95;;;;;;;24.91;46.89;101850.72;5049291;28;20044;-74
2023/09/05 01:51:36;;;;;;;113.45;108.43;;;;;;;24.88;46.70;101854.94;5049882;28;20044;-74
2023/09/05 01:54:02;;;;;;;113.53;108.50;;;;;;;24.88;46.64;101860.47;5042200;28;20506;-74
2023/09/05 01:56:27;;;;;;;111.97;107.07;;;;;;;24.86;46.88;101862.72;5051176;28;20045;-74
2023/09/05 01:58:53;;;;;;;109.95;105.05;;;;;;;24.85;46.98;101863.84;5045822;28;20087;-74
2023/09/05 02:01:18;;;;;;;107.93;103.22;;;;;;;24.82;46.71;101873.59;5040986;28;20045;-74
2023/09/05 02:03:44;;;;;;;108.40;103.57;;;;;;;24.80;46.81;101867.56;5037907;28;20116;-74
2023/09/05 02:06:10;;;;;;;112.25;107.25;;;;;;;24.79;46.83;101868.66;5036108;28;20033;-74
2023/09/05 02:08:35;;;;;;;109.63;104.75;;;;;;;24.77;46.62;101850.75;5042031;28;20056;-74
2023/09/05 02:11:01;;;;;;;107.60;102.70;;;;;;;24.75;46.73;101858.56;5035729;28;20025;-74
2023/09/05 02:13:28;;;;;;;109.22;104.43;;;;;;;24.73;46.86;101847.00;5040889;28;20041;-74
2023/09/05 02:15:54;;;;;;;112.65;107.65;;;;;;;24.70;47.05;101853.97;5049928;28;20036;-74
2023/09/05 02:18:19;;;;;;;107.78;102.97;;;;;;;24.68;46.85;101856.22;5043939;28;20488;-74
2023/09/05 02:20:44;;;;;;;109.40;104.50;;;;;;;24.66;46.78;101858.47;5051709;28;20380;-74
2023/09/05 02:23:10;;;;;;;112.97;107.97;;;;;;;24.64;46.91;101854.38;5047925;28;20049;-73
2023/09/05 02:25:35;;;;;;;109.80;104.95;;;;;;;24.61;46.61;101853.06;5051933;28;20877;-73
2023/09/05 02:28:01;;;;;;;107.30;102.43;;;;;;;24.60;46.54;101854.22;5051878;28;20044;-73
2023/09/05 02:30:26;;;;;;;107.57;102.88;;;;;;;24.58;47.01;101851.75;5048229;28;20037;-73
2023/09/05 02:32:53;;;;;;;105.97;101.25;;;;;;;24.56;46.75;101862.28;5034167;28;20113;-74
2023/09/05 02:35:20;;;;;;;104.18;99.57;;;;;;;24.53;46.70;101859.34;5034203;28;20041;-74
2023/09/05 02:37:49;;;;;;;109.45;104.57;;;;;;;24.52;46.62;101860.44;5045257;28;20041;-74
2023/09/05 02:40:14;;;;;;;104.78;100.00;;;;;;;24.50;47.10;101854.44;5041459;28;20029;-74
2023/09/05 02:42:40;;;;;;;107.70;102.93;;;;;;;24.47;46.99;101855.88;5036982;28;20474;-74
2023/09/05 02:45:06;;;;;;;111.10;106.20;;;;;;;24.45;47.04;101852.59;5034062;28;20033;-75
2023/09/05 02:47:31;;;;;;;110.13;104.70;;;;;;;24.43;46.72;101852.06;5038495;28;20110;-75
2023/09/05 02:49:56;;;;;;;107.75;102.95;;;;;;;24.40;47.19;101849.91;5038746;28;20363;-75
2023/09/05 02:52:24;;;;;;;103.80;99.05;;;;;;;24.39;46.82;101848.28;5051075;28;20025;-74
2023/09/05 02:54:50;;;;;;;109.60;104.60;;;;;;;24.36;46.77;101846.94;5045778;28;20059;-74
2023/09/05 02:57:15;;;;;;;108.88;103.97;;;;;;;24.34;47.17;101840.94;5034350;28;20481;-75
2023/09/05 02:59:41;;;;;;;106.13;101.03;;;;;;;24.33;46.98;101842.03;5057625;28;20102;-74
2023/09/05 03:02:06;;;;;;;108.25;103.45;;;;;;;24.32;47.06;101850.66;5037997;28;20041;-73
2023/09/05 03:04:32;;;;;;;106.20;101.50;;;;;;;24.30;46.79;101841.88;5045418;28;20040;-73
2023/09/05 03:07:00;;;;;;;103.93;99.25;;;;;;;24.28;47.14;101833.88;5058719;28;20112;-74
2023/09/05 03:09:25;;;;;;;105.20;100.60;;;;;;;24.26;47.15;101832.53;5050078;28;20063;-73
2023/09/05 03:11:50;;;;;;;111.82;106.68;;;;;;;24.25;47.07;101830.94;5048619;28;20060;-75
2023/09/05 03:14:16;;;;;;;103.93;99.13;;;;;;;24.23;47.11;101827.66;5043232;28;20445;-75
2023/09/05 03:16:41;;;;;;;111.07;106.25;;;;;;;24.21;46.71;101827.94;5035653;28;20059;-76
2023/09/05 03:19:07;;;;;;;109.43;104.32;;;;;;;24.20;46.81;101837.38;5051742;28;20053;-76
2023/09/05 03:21:32;;;;;;;104.40;99.70;;;;;;;24.18;47.27;101836.84;5052190;28;20038;-75
2023/09/05 03:23:59;;;;;;;105.35;100.65;;;;;;;24.17;47.13;101840.75;5047984;28;20558;-76
2023/09/05 03:26:24;;;;;;;107.32;102.45;;;;;;;24.15;46.82;101841.06;5049634;28;20037;-73
2023/09/05 03:28:50;;;;;;;105.68;100.90;;;;;;;24.14;46.64;101838.59;5052567;28;20029;-73
2023/09/05 03:31:15;;;;;;;106.35;101.55;;;;;;;24.12;47.01;101836.16;5050213;28;20045;-73
2023/09/05 03:33:41;;;;;;;104.78;100.07;;;;;;;24.09;47.24;101836.78;5051040;28;20068;-74
2023/09/05 03:36:08;;;;;;;104.30;99.60;;;;;;;24.08;46.87;101828.78;5051285;28;20477;-73
2023/09/05 03:38:34;;;;;;;104.07;99.32;;;;;;;24.05;46.86;101832.97;5044905;28;20090;-74
2023/09/05 03:41:00;;;;;;;105.28;100.47;;;;;;;24.04;46.89;101825.84;5048111;28;20108;-73
2023/09/05 03:43:25;;;;;;;104.65;99.95;;;;;;;24.02;46.80;101825.31;5047193;28;20465;-73
2023/09/05 03:45:51;;;;;;;107.40;102.63;;;;;;;24.00;46.68;101819.28;5033858;28;20163;-73
2023/09/05 03:48:16;;;;;;;104.20;99.50;;;;;;;23.98;47.14;101825.09;5035285;28;20057;-73
2023/09/05 03:50:41;;;;;;;103.45;98.85;;;;;;;23.97;47.02;101828.19;5048879;28;20118;-73
2023/09/05 03:53:07;;;;;;;105.20;100.40;;;;;;;23.96;46.83;101824.63;5051264;28;20063;-75
2023/09/05 03:55:34;;;;;;;104.65;99.85;;;;;;;23.94;46.91;101823.28;5036113;28;20071;-76
2023/09/05 03:58:00;;;;;;;101.38;96.88;;;;;;;23.93;46.99;101821.63;5032351;28;20040;-74
2023/09/05 04:00:26;;;;;;;103.68;98.78;;;;;;;23.90;47.14;101819.50;5054585;28;20120;-76
2023/09/05 04:02:51;;;;;;;101.95;97.35;;;;;;;23.88;46.97;101822.56;5050928;28;20123;-76
2023/09/05 04:05:17;;;;;;;99.63;95.22;;;;;;;23.88;46.89;101810.72;5037186;28;20030;-75
2023/09/05 04:07:43;;;;;;;101.47;96.95;;;;;;;23.85;47.07;101814.91;5044229;28;20044;-75
2023/09/05 04:10:09;;;;;;;100.75;96.25;;;;;;;23.84;46.91;101815.19;5034993;28;20113;-76
2023/09/05 04:12:34;;;;;;;101.35;96.85;;;;;;;23.82;47.01;101812.75;5060193;28;20469;-75
2023/09/05 04:14:59;;;;;;;104.32;99.72;;;;;;;23.82;47.07;101809.19;5033887;28;20044;-76
2023/09/05 04:17:25;;;;;;;99.55;94.85;;;;;;;23.79;46.92;101795.97;5034343;28;20430;-75
2023/09/05 04:19:56;;;;;;;101.40;96.85;;;;;;;23.78;46.88;101797.13;5037054;28;20044;-74
2023/09/05 04:22:24;;;;;;;101.90;97.20;;;;;;;23.75;46.75;101788.31;5043434;28;20472;-74
2023/09/05 04:24:57;;;;;;;99.63;95.20;;;;;;;23.75;46.98;101798.53;5044888;28;20424;-75
2023/09/05 04:27:23;;;;;;;97.63;93.25;;;;;;;23.72;47.11;101788.09;5049258;28;20120;-76
2023/09/05 04:29:51;;;;;;;101.53;96.93;;;;;;;23.69;46.80;101792.28;5043009;28;20045;-76
2023/09/05 04:32:18;;;;;;;100.50;96.05;;;;;;;23.69;46.92;101791.47;5040757;28;20049;-76
2023/09/05 04:34:44;;;;;;;99.72;95.22;;;;;;;23.67;46.72;101794.53;5046388;28;20040;-73
2023/09/05 04:37:09;;;;;;;100.30;95.80;;;;;;;23.66;47.16;101792.91;5041215;28;20036;-74
2023/09/05 04:39:37;;;;;;;99.85;95.38;;;;;;;23.64;47.20;101792.38;5035177;28;20397;-73
2023/09/05 04:42:02;;;;;;;100.03;95.45;;;;;;;23.62;47.15;101791.06;5036954;28;20036;-73
2023/09/05 04:44:28;;;;;;;103.28;98.68;;;;;;;23.61;46.53;101803.19;5044091;28;20087;-73
2023/09/05 04:47:22;;;;;;;99.72;95.03;;;;;;;23.58;47.04;101798.31;5037324;28;20123;-73
2023/09/05 04:49:52;;;;;;;97.18;92.70;;;;;;;23.58;46.80;101790.84;5044819;28;20041;-74
2023/09/05 04:52:19;;;;;;;98.97;94.45;;;;;;;23.55;46.65;101795.03;5043924;28;20036;-74
2023/09/05 04:54:48;;;;;;;99.28;94.78;;;;;;;23.56;47.09;101790.31;5049954;28;20112;-74
2023/09/05 04:57:14;;;;;;;;;;;;;;;23.49;46.76;101801.78;5040325;28;20041;-74
2023/09/05 04:59:43;;;;;;;92.28;88.13;;;;;;;23.51;46.93;101788.50;5034087;28;19917;-74
2023/09/05 05:02:09;;;;;;;95.72;91.35;;;;;;;23.48;47.10;101794.59;5044599;28;20029;-73
2023/09/05 05:04:34;;;;;;;95.72;91.22;;;;;;;23.47;46.70;101804.00;5048397;28;20488;-73
2023/09/05 05:07:00;;;;;;;101.03;96.32;;;;;;;23.48;46.76;101807.59;5049493;28;20131;-74
2023/09/05 05:09:25;;;;;;;98.85;94.45;;;;;;;23.46;46.54;101812.56;5042432;28;20038;-74
2023/09/05 05:11:50;;;;;;;97.88;93.43;;;;;;;23.45;46.78;101813.72;5034639;28;20029;-73
2023/09/05 05:14:16;;;;;;;95.05;90.75;;;;;;;23.43;46.75;101813.19;5051813;28;20044;-74
2023/09/05 05:16:43;;;;;;;97.55;93.18;;;;;;;23.41;47.19;101812.66;5038346;28;20099;-75
2023/09/05 05:19:09;;;;;;;99.38;94.80;;;;;;;23.41;46.65;101815.44;5044126;28;20404;-73
2023/09/05 05:21:35;;;;;;;97.78;93.32;;;;;;;23.39;46.77;101807.47;5046920;28;20033;-74
2023/09/05 05:24:00;;;;;;;99.00;94.53;;;;;;;23.39;46.81;101812.19;5043339;28;20034;-76
2023/09/05 05:26:28;;;;;;;96.72;92.32;;;;;;;23.38;46.72;101816.84;5046156;28;20036;-74
2023/09/05 05:28:53;;;;;;;96.68;92.18;;;;;;;23.36;46.80;101818.28;5058247;28;20424;-75
2023/09/05 05:31:19;;;;;;;98.05;93.55;;;;;;;23.35;46.67;101817.47;5049735;28;20032;-75
2023/09/05 05:33:44;;;;;;;96.50;92.13;;;;;;;23.33;47.09;101817.78;5050214;28;20071;-76
2023/09/05 05:36:10;;;;;;;99.15;94.55;;;;;;;23.32;46.51;101816.13;5051617;28;20032;-77
2023/09/05 05:38:35;;;;;;;97.15;92.80;;;;;;;23.31;46.50;101820.03;5055531;28;20048;-73
2023/09/05 05:41:02;;;;;;;98.30;93.85;;;;;;;23.30;46.75;101817.56;5051808;28;20495;-74
2023/09/05 05:43:29;;;;;;;96.20;91.88;;;;;;;23.27;47.08;101813.47;5050209;28;20514;-74
2023/09/05 05:45:54;;;;;;;96.18;91.63;;;;;;;23.27;46.53;101818.97;5050890;28;20068;-73
2023/09/05 05:48:20;;;;;;;95.13;90.78;;;;;;;23.26;46.90;101817.34;5051733;28;20473;-73
2023/09/05 05:50:45;;;;;;;94.63;90.25;;;;;;;23.24;46.65;101819.59;5053357;28;20033;-75
2023/09/05 05:53:11;;;;;;;95.85;91.45;;;;;;;23.23;46.65;101814.38;5048340;28;20444;-74
2023/09/05 05:55:36;;;;;;;94.18;89.90;;;;;;;23.20;46.68;101821.31;5043325;28;20416;-74
2023/09/05 05:58:02;;;;;;;97.13;92.65;;;;;;;23.18;46.90;101820.78;5050826;28;20104;-73
2023/09/05 06:00:29;;;;;;;95.50;91.20;;;;;;;23.17;47.06;101812.84;5052544;28;20055;-73
2023/09/05 06:02:55;;;;;;;95.00;90.70;;;;;;;23.16;46.94;101822.19;5050671;28;20037;-75
2023/09/05 06:05:21;;;;;;;93.93;89.68;;;;;;;23.13;46.52;101820.06;5043647;28;20065;-80
2023/09/05 06:07:47;;;;;;;95.80;91.32;;;;;;;23.10;46.85;101816.78;5055287;28;20059;-73
2023/09/05 06:10:12;;;;;;;96.43;92.00;;;;;;;23.09;46.57;101825.38;5063723;28;20076;-73
2023/09/05 06:12:38;;;;;;;95.72;91.38;;;;;;;23.08;46.93;101816.28;5044467;28;20034;-73
2023/09/05 06:15:04;;;;;;;98.63;94.13;;;;;;;23.07;46.92;101813.81;5039844;28;20113;-75
2023/09/05 06:17:29;;;;;;;94.65;90.25;;;;;;;23.06;47.00;101821.28;5044534;28;20489;-75
2023/09/05 06:19:55;;;;;;;96.22;91.82;;;;;;;23.05;46.76;101824.31;5043609;28;20065;-75
2023/09/05 06:22:20;;;;;;;95.35;91.00;;;;;;;23.03;46.62;101823.81;5044343;28;20044;-73
2023/09/05 06:24:46;;;;;;;95.47;91.10;;;;;;;23.02;46.92;101822.19;5048089;28;20119;-73
2023/09/05 06:27:11;;;;;;;96.00;91.60;;;;;;;23.00;46.77;101827.16;5047061;28;20029;-75
2023/09/05 06:29:37;;;;;;;92.65;88.28;;;;;;;22.99;46.96;101829.09;5051409;28;20049;-73
2023/09/05 06:32:03;;;;;;;95.25;90.90;;;;;;;22.98;47.19;101830.25;5052718;28;20497;-77
2023/09/05 06:34:28;;;;;;;93.88;89.65;;;;;;;22.98;46.87;101840.41;5050589;28;20049;-73
2023/09/05 06:36:53;;;;;;;96.03;91.72;;;;;;;22.96;46.61;101837.13;5039174;28;20469;-73
2023/09/05 06:39:19;;;;;;;93.28;88.90;;;;;;;22.96;46.74;101829.69;5059483;28;20039;-73
2023/09/05 06:41:44;;;;;;;93.88;89.68;;;;;;;22.94;46.65;101823.66;5056132;28;20042;-75
2023/09/05 06:44:10;;;;;;;94.43;89.90;;;;;;;22.93;46.69;101824.78;5036122;28;20041;-74
2023/09/05 06:46:35;;;;;;;93.75;89.30;;;;;;;22.93;47.09;101819.28;5037399;28;20164;-74
2023/09/05 06:49:02;;;;;;;91.55;87.35;;;;;;;22.92;46.92;101819.56;5049571;28;20112;-74
2023/09/05 06:51:29;;;;;;;93.10;88.80;;;;;;;22.92;47.16;101811.28;5054214;28;20055;-74
2023/09/05 06:53:55;;;;;;;95.45;90.97;;;;;;;22.91;46.84;101813.22;5039775;28;20044;-76
2023/09/05 06:56:20;;;;;;;95.03;90.63;;;;;;;22.91;47.23;101807.72;5041251;28;20096;-77
2023/09/05 06:58:47;;;;;;;92.82;88.13;;;;;;;22.91;46.93;101807.72;5037388;28;20485;-76
2023/09/05 07:01:13;;;;;;;93.78;89.40;;;;;;;22.90;46.91;101806.88;5057939;28;20111;-76
2023/09/05 07:03:38;;;;;;;94.15;89.75;;;;;;;22.91;46.88;101810.47;5050551;28;20037;-77
2023/09/05 07:06:04;;;;;;;96.63;92.13;;;;;;;22.92;47.11;101808.53;5048295;28;20137;-76
2023/09/05 07:08:31;;;;;;;92.03;87.78;;;;;;;22.91;47.00;101802.22;5050016;28;20041;-76
2023/09/05 07:10:57;;;;;;;93.35;88.95;;;;;;;22.93;46.62;101812.91;5045340;28;20037;-76
2023/09/05 07:13:22;;;;;;;94.70;90.18;;;;;;;22.93;47.07;101810.16;5050550;28;20087;-76
2023/09/05 07:15:48;;;;;;;93.47;89.03;;;;;;;22.93;46.65;101804.66;5045969;28;20046;-77
2023/09/05 07:18:13;;;;;;;91.10;86.75;;;;;;;22.94;46.62;101801.59;5042573;28;20479;-75
2023/09/05 07:20:39;;;;;;;92.53;88.30;;;;;;;22.94;47.01;101806.31;5040354;28;20076;-76
2023/09/05 07:23:05;;;;;;;93.35;88.63;;;;;;;22.94;47.01;101800.78;5049578;28;20080;-74
2023/09/05 07:25:31;;;;;;;92.38;88.20;;;;;;;22.95;46.68;101794.16;5052325;28;20082;-74
2023/09/05 07:27:57;;;;;;;91.93;87.53;;;;;;;22.95;46.65;101792.22;5040809;28;20038;-74
2023/09/05 07:30:23;;;;;;;93.25;88.95;;;;;;;22.96;47.22;101790.28;5033013;28;20060;-74
2023/09/05 07:32:49;;;;;;;92.13;87.93;;;;;;;22.96;46.68;101793.06;5044687;28;20036;-74
2023/09/05 07:35:14;;;;;;;94.68;90.38;;;;;;;22.96;46.80;101793.88;5042573;28;20121;-74
2023/09/05 07:37:41;;;;;;;90.55;86.35;;;;;;;22.94;46.88;101793.34;5046146;28;20112;-74
2023/09/05 07:40:07;;;;;;;91.60;87.25;;;;;;;22.96;46.98;101793.06;5033162;28;20037;-74
2023/09/05 07:42:33;;;;;;;95.95;91.45;;;;;;;22.97;47.19;101800.19;5040522;28;20033;-74
2023/09/05 07:45:00;;;;;;;92.80;88.53;;;;;;;22.97;47.25;101797.44;5049198;28;20033;-74
2023/09/05 07:47:26;;;;;;;93.95;89.65;;;;;;;22.99;47.20;101814.50;5035774;28;20087;-74
2023/09/05 07:49:51;;;;;;;90.28;86.28;;;;;;;23.01;47.37;101812.28;5042509;28;20040;-74
2023/09/05 07:52:16;;;;;;;93.45;89.05;;;;;;;23.02;47.05;101803.69;5034254;28;20502;-74
2023/09/05 07:54:42;;;;;;;92.70;88.30;;;;;;;23.05;46.96;101805.03;5038773;28;20086;-74
2023/09/05 07:57:07;;;;;;;91.50;87.10;;;;;;;23.08;47.56;101802.50;5049468;28;20059;-74
2023/09/05 07:59:32;;;;;;;91.80;87.50;;;;;;;23.11;47.09;101801.09;5041480;28;20033;-74
2023/09/05 08:01:58;;;;;;;93.88;89.47;;;;;;;23.13;47.48;101796.06;5042967;28;20152;-74
2023/09/05 08:04:23;;;;;;;91.28;87.18;;;;;;;23.18;47.25;101801.50;5055496;28;20102;-74
2023/09/05 08:06:50;;;;;;;93.78;89.57;;;;;;;23.23;47.32;101797.84;5052404;28;20048;-74
2023/09/05 08:09:15;;;;;;;94.97;90.57;;;;;;;23.27;47.14;101796.94;5046211;28;20048;-73
2023/09/05 08:11:40;;;;;;;91.97;87.88;;;;;;;23.35;47.61;101800.13;5042349;28;20037;-73
2023/09/05 08:14:06;;;;;;;97.50;92.90;;;;;;;23.39;47.58;101801.16;5032670;28;20481;-73
2023/09/05 08:16:31;;;;;;;92.95;88.65;;;;;;;23.44;47.69;101801.06;5037487;28;20029;-73
2023/09/05 08:18:57;;;;;;;93.90;89.78;;;;;;;23.49;47.29;101801.78;5046092;28;20030;-74
2023/09/05 08:21:22;;;;;;;96.38;91.78;;;;;;;23.53;47.46;101797.25;5046986;28;20039;-74
2023/09/05 08:23:50;;;;;;;94.65;90.15;;;;;;;23.59;47.60;101794.44;5041351;28;20381;-74
2023/09/05 08:26:16;;;;;;;94.53;90.25;;;;;;;23.63;47.77;101789.94;5048695;28;20040;-74
2023/09/05 08:28:44;;;;;;;96.95;92.55;;;;;;;23.68;47.82;101795.34;5049555;28;20393;-74
2023/09/05 08:31:15;;;;;;;94.65;90.47;;;;;;;23.73;47.90;101787.00;5050143;28;20364;-74
2023/09/05 08:33:41;;;;;;;98.35;93.95;;;;;;;23.79;47.86;101798.75;5037057;28;20072;-74
2023/09/05 08:36:08;;;;;;;98.18;93.68;;;;;;;23.84;48.13;101796.72;5035306;28;20112;-74
2023/09/05 08:38:37;;;;;;;99.65;95.07;;;;;;;23.90;47.80;101795.47;5043874;28;20211;-77
2023/09/05 08:41:03;;;;;;;99.20;94.80;;;;;;;23.95;48.10;101787.09;5043475;28;20040;-76
2023/09/05 08:43:28;;;;;;;102.60;98.00;;;;;;;24.02;48.24;101789.44;5036066;28;20121;-76
2023/09/05 08:45:55;;;;;;;102.15;97.50;;;;;;;24.08;47.72;101788.19;5045117;28;20048;-76
2023/09/05 08:48:21;;;;;;;100.93;96.43;;;;;;;24.15;48.05;101790.56;5047151;28;20500;-75
2023/09/05 08:50:47;;;;;;;102.00;97.57;;;;;;;24.21;48.25;101789.31;5047175;28;20037;-76
2023/09/05 08:53:15;;;;;;;101.97;97.40;;;;;;;24.27;47.83;101788.06;5040581;28;20057;-76
2023/09/05 08:55:43;;;;;;;101.15;96.70;;;;;;;24.32;48.01;101789.91;5042832;28;20057;-75
2023/09/05 08:58:15;;;;;;;103.75;99.25;;;;;;;24.39;48.07;101801.31;5039364;28;20047;-75
2023/09/05 09:00:43;;;;;;;102.50;98.05;;;;;;;24.44;48.48;101798.44;5035352;28;20044;-76
2023/09/05 09:03:08;;;;;;;103.55;98.65;;;;;;;24.50;48.07;101797.25;5032861;28;20067;-75
2023/09/05 09:05:36;;;;;;;104.32;99.68;;;;;;;24.56;48.00;101798.75;5030216;28;20095;-76
2023/09/05 09:08:03;;;;;;;103.47;98.57;;;;;;;24.61;48.29;101806.09;5046812;28;20091;-75
2023/09/05 09:10:28;;;;;;;103.68;98.97;;;;;;;24.67;48.19;101804.88;5050561;28;20060;-75
2023/09/05 09:12:55;;;;;;;104.95;100.25;;;;;;;24.73;48.34;101802.81;5048099;28;20065;-75
2023/09/05 09:15:25;;;;;;;108.85;103.75;;;;;;;24.78;48.18;101797.97;5046052;28;20028;-76
2023/09/05 09:17:51;;;;;;;105.40;100.50;;;;;;;24.84;48.22;101806.94;5041168;28;20048;-76
2023/09/05 09:20:19;;;;;;;108.93;104.05;;;;;;;24.91;47.87;101812.03;5042151;28;20040;-75
2023/09/05 09:22:46;;;;;;;109.18;104.30;;;;;;;24.95;47.98;101815.81;5043338;28;20579;-76
2023/09/05 09:25:20;;;;;;;110.97;106.18;;;;;;;25.00;48.25;101815.69;5049159;28;20040;-76
2023/09/05 09:27:57;;;;;;;109.43;104.53;;;;;;;25.05;48.14;101819.13;5037300;28;20501;-75
2023/09/05 09:30:27;;;;;;;109.68;104.78;;;;;;;25.11;48.55;101828.09;5043381;28;20044;-75
2023/09/05 09:32:54;;;;;;;111.53;106.63;;;;;;;25.16;48.50;101827.16;5041123;28;20033;-75
2023/09/05 09:35:20;;;;;;;113.68;108.60;;;;;;;25.21;48.39;101829.84;5037059;28;20041;-75
2023/09/05 09:37:47;;;;;;;115.90;110.93;;;;;;;25.25;48.30;101828.88;5031368;28;20371;-75
2023/09/05 09:40:16;;;;;;;113.25;108.30;;;;;;;25.30;48.27;101818.81;5045075;28;20520;-75
2023/09/05 09:42:43;;;;;;;111.28;106.45;;;;;;;25.35;48.26;101816.75;5048570;28;20041;-75
2023/09/05 09:45:09;;;;;;;113.15;108.22;;;;;;;25.39;48.13;101817.72;5034419;28;20093;-76
2023/09/05 09:47:38;;;;;;;113.70;108.60;;;;;;;25.44;48.08;101820.34;5043104;28;20169;-74
2023/09/05 09:50:04;;;;;;;112.53;107.63;;;;;;;25.48;48.24;101815.03;5041002;28;20071;-76
2023/09/05 09:52:34;;;;;;;113.78;108.57;;;;;;;25.54;48.32;101816.50;5046437;28;20057;-74
2023/09/05 09:55:02;;;;;;;116.22;111.18;;;;;;;25.58;48.00;101813.94;5041649;28;20102;-75
2023/09/05 09:57:35;;;;;;;114.43;109.32;;;;;;;25.64;47.95;101815.41;5038737;28;20075;-74
2023/09/05 10:00:24;;;;;;;117.53;111.82;;;;;;;25.67;48.05;101806.47;5047844;28;20530;-75
2023/09/05 10:02:49;;;;;;;114.75;109.65;;;;;;;25.72;48.11;101803.56;5033641;28;20167;-74
2023/09/05 10:05:17;;;;;;;114.72;109.63;;;;;;;25.77;48.18;101802.59;5031441;28;20022;-75
2023/09/05 10:07:43;;;;;;;118.72;112.97;;;;;;;25.83;48.08;101804.06;5042057;28;20083;-74
2023/09/05 10:10:15;;;;;;;115.90;110.90;;;;;;;25.86;48.02;101798.75;5036887;28;20336;-74
2023/09/05 10:12:44;;;;;;;119.65;114.35;;;;;;;25.90;48.20;101797.00;5048458;28;20043;-75
2023/09/05 10:15:11;;;;;;;114.20;109.25;;;;;;;25.95;48.03;101801.53;5036407;28;20472;-75
2023/09/05 10:17:39;;;;;;;123.43;117.97;;;;;;;26.01;48.13;101793.91;5044078;28;20055;-75
2023/09/05 10:20:07;;;;;;;115.68;110.57;;;;;;;26.04;47.96;101788.53;5032192;28;20137;-74
2023/09/05 10:22:37;;;;;;;116.68;111.47;;;;;;;26.09;48.47;101785.63;5049567;28;20043;-75
2023/09/05 10:25:06;;;;;;;117.70;112.50;;;;;;;26.15;48.55;101779.94;5039844;28;20024;-75
2023/09/05 10:27:31;;;;;;;124.13;118.50;;;;;;;26.18;48.11;101777.31;5033573;28;20407;-74
2023/09/05 10:29:57;;;;;;;124.63;118.93;;;;;;;26.23;48.30;101776.34;5038385;28;20037;-75
2023/09/05 10:32:24;;;;;;;117.75;112.43;;;;;;;26.27;48.29;101780.09;5042026;28;20029;-74
2023/09/05 10:34:58;;;;;;;119.75;114.28;;;;;;;26.30;48.26;101774.72;5035830;28;20501;-75
2023/09/05 10:37:32;;;;;;;119.57;114.28;;;;;;;26.35;48.54;101782.06;5047748;28;20350;-76
2023/09/05 10:40:06;;;;;;;123.18;117.50;;;;;;;26.39;48.36;101777.50;5032912;28;20030;-75
2023/09/05 10:42:32;;;;;;;121.95;116.65;;;;;;;26.42;48.39;101774.09;5036905;28;20032;-76
2023/09/05 10:45:23;;;;;;;121.82;116.22;;;;;;;26.45;48.46;101767.88;5041041;28;20040;-76
2023/09/05 10:47:56;;;;;;;121.68;116.38;;;;;;;26.50;48.46;101776.03;5040251;28;20120;-76
2023/09/05 10:50:23;;;;;;;125.93;120.00;;;;;;;26.54;48.12;101777.06;5034375;28;20171;-75
2023/09/05 10:53:11;;;;;;;125.03;119.53;;;;;;;26.57;48.26;101764.50;5054502;28;20077;-75
2023/09/05 10:55:46;;;;;;;126.63;120.25;;;;;;;26.62;48.35;101761.56;5040850;28;20029;-75
2023/09/05 10:58:47;;;;;;;123.07;117.80;;;;;;;26.65;48.53;101760.09;5037585;28;20057;-75
2023/09/05 11:01:31;;;;;;;122.30;117.05;;;;;;;26.67;48.60;101758.63;5038709;28;20021;-76